Time;durP1;ratioP1;P1;durP2;ratioP2;P2;SDS_P1;SDS_P2;PMS_P1;PMS_P2;Temp;Humidity;BMP_temperature;BMP_pressure;BME280_temperature;BME280_humidity;BME280_pressure;Samples;Min_cycle;Max_cycle;Signal;HPM_P1;HPM_P2
2022/08/12 00:44:38;;;;;;;11.07;5.15;;;;;;;21.16;59.43;100260.16;5026017;28;20053;-69
2022/08/12 00:47:09;;;;;;;10.88;5.40;;;;;;;21.34;59.26;100289.13;5030859;28;21033;-69
2022/08/12 00:49:52;;;;;;;7.05;4.93;;;;;;;20.89;59.46;100227.72;5043765;28;20405;-71
2022/08/12 00:52:20;;;;;;;13.52;4.85;;;;;;;21.33;59.49;100288.28;5027764;28;20076;-69
2022/08/12 00:54:55;;;;;;;10.90;5.00;;;;;;;21.33;59.39;100282.59;5029360;28;20084;-69
2022/08/12 00:57:29;;;;;;;14.60;5.60;;;;;;;21.33;59.20;100279.75;5029683;28;20076;-69
2022/08/12 00:59:58;;;;;;;10.00;4.95;;;;;;;20.75;59.50;100189.22;5027899;28;20053;-69
2022/08/12 01:02:31;;;;;;;8.68;4.57;;;;;;;20.98;59.44;100231.25;5022034;28;20041;-70
2022/08/12 01:13:25;;;;;;;12.65;4.28;;;;;;;21.14;59.54;100268.25;5029075;28;20817;-70
2022/08/12 01:16:00;;;;;;;11.07;4.35;;;;;;;21.11;59.48;100264.09;5030844;28;20088;-69
2022/08/12 01:18:30;;;;;;;11.65;4.50;;;;;;;21.14;59.73;100259.72;5030165;28;20084;-69
2022/08/12 01:21:02;;;;;;;9.27;4.22;;;;;;;21.13;59.66;100255.22;5028132;28;20320;-69
2022/08/12 01:23:44;;;;;;;10.30;4.55;;;;;;;21.08;59.90;100258.31;5028326;28;20591;-69
2022/08/12 01:26:20;;;;;;;13.23;5.32;;;;;;;20.79;59.55;100206.34;5021225;28;20502;-69
2022/08/12 01:28:51;;;;;;;10.65;4.95;;;;;;;20.81;59.77;100206.81;5027496;28;20522;-69
2022/08/12 01:31:19;;;;;;;8.15;3.85;;;;;;;20.96;59.70;100227.97;5030784;28;20486;-70
2022/08/12 01:34:11;;;;;;;15.85;4.20;;;;;;;21.05;59.50;100255.00;5026409;28;20049;-70
2022/08/12 01:37:03;;;;;;;11.07;4.65;;;;;;;21.01;59.65;100241.88;5026985;28;20050;-69
2022/08/12 01:39:52;;;;;;;6.60;4.05;;;;;;;21.00;59.60;100249.59;5027799;28;20073;-70
2022/08/12 01:42:48;;;;;;;9.52;4.53;;;;;;;20.89;59.62;100227.72;5028187;28;20421;-70
2022/08/12 01:45:20;;;;;;;6.93;4.25;;;;;;;20.47;59.53;100160.72;5024530;28;20087;-70
2022/08/12 01:47:52;;;;;;;13.60;4.97;;;;;;;20.84;59.82;100214.59;5028321;28;20095;-70
2022/08/12 01:50:35;;;;;;;9.05;4.72;;;;;;;20.96;59.64;100250.66;5023577;28;20468;-70
2022/08/12 01:53:05;;;;;;;12.60;4.13;;;;;;;20.90;59.67;100237.91;5024908;28;20455;-69
2022/08/12 01:55:36;;;;;;;10.02;3.67;;;;;;;20.97;59.70;100247.47;5019942;28;20422;-69
2022/08/12 01:58:28;;;;;;;6.53;3.75;;;;;;;20.89;59.75;100256.94;5027245;28;20072;-69
2022/08/12 02:01:12;;;;;;;12.98;4.95;;;;;;;20.86;59.78;100240.63;5021960;28;20057;-69
2022/08/12 02:13:38;;;;;;;9.02;3.83;;;;;;;20.86;59.91;100237.78;5024603;28;20052;-69
2022/08/12 02:16:40;;;;;;;12.02;4.78;;;;;;;20.82;60.03;100232.00;5034855;28;20103;-69
2022/08/12 02:19:27;;;;;;;11.25;4.22;;;;;;;20.78;60.02;100250.09;5029978;28;20049;-69
2022/08/12 02:22:11;;;;;;;7.47;3.92;;;;;;;20.39;59.85;100203.41;5022041;28;20080;-70
2022/08/12 02:24:41;;;;;;;9.63;3.60;;;;;;;20.68;59.90;100240.03;5028659;28;20794;-70
2022/08/12 02:27:09;;;;;;;11.85;4.55;;;;;;;20.61;60.00;100228.47;5026625;28;20501;-69
2022/08/12 02:29:38;;;;;;;12.77;5.97;;;;;;;20.58;60.03;100223.50;5031383;28;20087;-69
2022/08/12 02:32:07;;;;;;;8.40;4.25;;;;;;;20.71;60.29;100244.19;5030585;28;20077;-70
2022/08/12 02:34:34;;;;;;;10.90;3.80;;;;;;;20.39;59.97;100198.56;5033285;28;20045;-70
2022/08/12 02:37:02;;;;;;;7.63;3.95;;;;;;;20.59;60.18;100236.53;5033689;28;20069;-70
2022/08/12 02:39:32;;;;;;;9.82;4.53;;;;;;;20.52;60.32;100203.09;5030944;28;20471;-70
2022/08/12 02:42:03;;;;;;;11.80;4.57;;;;;;;20.38;60.15;100185.56;5033967;28;20037;-70
2022/08/12 02:44:36;;;;;;;8.00;4.47;;;;;;;20.64;60.38;100232.59;5033640;28;20050;-70
2022/08/12 02:47:05;;;;;;;10.20;6.25;;;;;;;20.58;60.34;100230.03;5023545;28;20135;-70
2022/08/12 02:49:38;;;;;;;9.68;4.60;;;;;;;20.61;60.28;100236.16;5034696;28;20049;-70
2022/08/12 02:52:06;;;;;;;10.10;4.05;;;;;;;20.47;60.30;100219.47;5031395;28;20131;-70
2022/08/12 02:54:34;;;;;;;10.85;5.03;;;;;;;20.25;60.75;100200.94;5027748;28;20085;-70
2022/08/12 02:57:01;;;;;;;11.10;4.32;;;;;;;20.51;60.47;100240.28;5029056;28;20077;-69
2022/08/12 02:59:29;;;;;;;10.68;4.32;;;;;;;20.41;60.58;100216.06;5028620;28;20041;-70
2022/08/12 03:02:03;;;;;;;6.82;4.05;;;;;;;20.50;60.56;100225.28;5027632;28;20494;-69
2022/08/12 03:04:45;;;;;;;10.60;4.43;;;;;;;20.50;60.27;100233.81;5031533;28;20049;-69
2022/08/12 03:07:25;;;;;;;7.18;4.28;;;;;;;20.48;60.47;100224.81;5032243;28;20139;-70
2022/08/12 03:10:13;;;;;;;7.18;4.50;;;;;;;20.30;60.28;100204.34;5033662;28;20049;-69
2022/08/12 03:12:45;;;;;;;10.15;4.07;;;;;;;20.42;60.44;100231.06;5034806;28;20046;-69
2022/08/12 03:15:19;;;;;;;9.65;4.65;;;;;;;20.39;60.49;100224.09;5034652;28;20076;-68
2022/08/12 03:17:54;;;;;;;10.95;3.72;;;;;;;20.39;60.45;100229.75;5033659;28;20054;-69
2022/08/12 03:20:41;;;;;;;11.90;4.72;;;;;;;20.28;60.65;100215.22;5021814;28;20144;-69
2022/08/12 03:23:13;;;;;;;7.57;4.38;;;;;;;20.39;60.60;100221.25;5031438;28;20073;-70
2022/08/12 03:25:56;;;;;;;11.05;5.43;;;;;;;20.41;60.98;100226.56;5029352;28;20050;-70
2022/08/12 03:31:09;;;;;;;8.93;4.22;;;;;;;20.31;60.68;100208.84;5032640;28;20112;-70
2022/08/12 03:33:39;;;;;;;9.05;4.78;;;;;;;20.22;60.79;100193.13;5029680;28;20119;-70
2022/08/12 03:36:07;;;;;;;7.72;4.57;;;;;;;20.14;60.66;100192.09;5032673;28;20087;-69
2022/08/12 03:38:39;;;;;;;9.13;4.85;;;;;;;19.91;60.57;100165.38;5027172;28;20093;-69
2022/08/12 03:41:34;;;;;;;10.73;4.75;;;;;;;20.09;60.54;100190.28;5031678;28;20045;-69
2022/08/12 04:01:26;;;;;;;10.95;4.55;;;;;;;19.97;61.13;100169.63;5031246;28;20046;-69
2022/08/12 04:03:53;;;;;;;12.57;4.60;;;;;;;20.08;61.25;100191.47;5029715;28;20041;-69
2022/08/12 04:06:25;;;;;;;13.60;5.07;;;;;;;20.00;61.53;100181.09;5031016;28;20072;-69
2022/08/12 04:09:04;;;;;;;11.85;4.97;;;;;;;20.19;61.67;100191.00;5026115;28;20049;-68
2022/08/12 04:14:27;;;;;;;13.27;6.05;;;;;;;20.32;61.66;100193.47;5031998;28;20494;-68
2022/08/12 04:16:55;;;;;;;7.00;4.55;;;;;;;20.43;61.75;100191.00;5031350;28;20053;-68
2022/08/12 04:19:23;;;;;;;10.68;5.22;;;;;;;20.47;61.65;100194.75;5030620;28;20486;-68
2022/08/12 04:21:51;;;;;;;9.68;5.28;;;;;;;20.51;61.38;100195.75;5029827;28;20506;-68
2022/08/12 04:24:35;;;;;;;8.63;4.63;;;;;;;20.18;61.27;100135.50;5026845;28;20132;-68
2022/08/12 04:27:09;;;;;;;10.55;4.50;;;;;;;20.25;61.39;100135.72;5021713;28;20546;-69
2022/08/12 04:29:37;;;;;;;7.72;4.45;;;;;;;20.62;61.40;100198.94;5024786;28;20099;-67
2022/08/12 04:32:25;;;;;;;10.32;4.88;;;;;;;20.74;61.32;100200.91;5031132;28;20049;-68
2022/08/12 04:34:52;;;;;;;15.23;4.65;;;;;;;20.79;61.26;100201.50;5025959;28;20405;-68
2022/08/12 04:37:19;;;;;;;7.88;4.72;;;;;;;20.79;60.81;100184.47;5030812;28;20099;-68
2022/08/12 04:39:47;;;;;;;10.10;4.28;;;;;;;20.96;60.64;100162.66;5028584;28;20107;-69
2022/08/12 04:42:15;;;;;;;8.35;4.40;;;;;;;20.80;60.35;100156.91;5025203;28;20049;-69
2022/08/12 04:44:42;;;;;;;8.40;4.40;;;;;;;20.87;60.47;100170.50;5034017;28;20057;-69
2022/08/12 04:47:13;;;;;;;12.02;5.20;;;;;;;20.92;59.85;100184.41;5034565;28;20092;-69
2022/08/12 04:49:42;;;;;;;12.38;5.10;;;;;;;20.90;60.10;100201.81;5034408;28;20064;-69
2022/08/12 04:52:09;;;;;;;11.02;5.00;;;;;;;20.74;60.05;100195.22;5030443;28;20575;-70
2022/08/12 04:54:37;;;;;;;10.27;4.90;;;;;;;20.31;59.99;100162.66;5029536;28;20045;-69
2022/08/12 04:57:04;;;;;;;8.70;4.93;;;;;;;20.36;60.27;100182.25;5034039;28;20045;-69
2022/08/12 04:59:32;;;;;;;7.70;5.05;;;;;;;20.30;60.08;100201.50;5032235;28;20494;-70
2022/08/12 05:02:16;;;;;;;9.63;4.60;;;;;;;20.33;60.14;100202.81;5027792;28;20048;-68
2022/08/12 05:04:55;;;;;;;11.60;5.22;;;;;;;20.28;60.30;100208.75;5036525;28;20053;-68
2022/08/12 05:07:26;;;;;;;9.73;5.10;;;;;;;19.89;60.50;100165.72;5027402;28;20053;-68
2022/08/12 05:09:54;;;;;;;12.60;5.55;;;;;;;20.12;60.66;100200.09;5026486;28;20080;-69
2022/08/12 05:12:43;;;;;;;16.20;6.30;;;;;;;19.85;60.91;100159.09;5027427;28;20049;-68
2022/08/12 05:15:12;;;;;;;13.02;5.18;;;;;;;19.85;61.12;100168.44;5029087;28;20064;-69
2022/08/12 05:17:54;;;;;;;12.05;5.25;;;;;;;20.01;61.05;100204.59;5029673;28;20099;-68
2022/08/12 05:20:25;;;;;;;10.30;5.03;;;;;;;20.06;61.55;100202.34;5027533;28;20490;-68
2022/08/12 05:23:15;;;;;;;13.60;5.47;;;;;;;20.11;61.55;100212.63;5029267;28;20041;-68
2022/08/12 05:25:44;;;;;;;12.00;6.30;;;;;;;20.10;61.91;100197.63;5025793;28;20469;-68
2022/08/12 05:28:12;;;;;;;9.32;4.85;;;;;;;20.22;61.70;100215.81;5027418;28;20081;-68
2022/08/12 05:30:41;;;;;;;9.63;4.72;;;;;;;20.03;61.67;100185.19;5028805;28;20107;-68
2022/08/12 05:33:09;;;;;;;8.90;4.90;;;;;;;20.25;61.71;100207.44;5027812;28;20055;-69
2022/08/12 05:35:39;;;;;;;7.97;4.43;;;;;;;20.12;61.69;100172.56;5026459;28;20107;-69
2022/08/12 05:40:54;;;;;;;10.88;4.22;;;;;;;20.24;61.39;100207.78;5023030;28;20148;-69
2022/08/12 05:43:21;;;;;;;9.25;4.60;;;;;;;20.28;61.72;100206.72;5022288;28;20103;-69
2022/08/12 05:45:48;;;;;;;12.07;5.68;;;;;;;20.07;61.49;100172.81;5024316;28;20077;-70
2022/08/12 05:48:16;;;;;;;8.85;5.00;;;;;;;20.28;61.07;100222.91;5026956;28;20533;-70
2022/08/12 05:50:44;;;;;;;11.20;5.65;;;;;;;20.05;61.37;100195.03;5026226;28;20073;-70
2022/08/12 05:53:12;;;;;;;9.23;4.72;;;;;;;19.89;61.47;100189.19;5023886;28;20696;-69
2022/08/12 05:55:39;;;;;;;9.93;5.60;;;;;;;19.98;61.39;100220.28;5024278;28;20105;-69
2022/08/12 05:58:09;;;;;;;7.38;4.30;;;;;;;19.93;61.39;100229.03;5028403;28;20493;-70
2022/08/12 06:00:36;;;;;;;13.00;5.28;;;;;;;19.89;61.32;100222.38;5029143;28;20466;-68
2022/08/12 06:03:04;;;;;;;10.50;4.78;;;;;;;19.58;61.30;100172.72;5030468;28;20100;-68
2022/08/12 06:05:34;;;;;;;13.48;5.65;;;;;;;19.80;61.20;100216.03;5025899;28;20052;-68
2022/08/12 06:08:22;;;;;;;10.45;5.18;;;;;;;19.45;61.41;100168.19;5027889;28;20138;-68
2022/08/12 06:10:49;;;;;;;11.07;5.38;;;;;;;19.59;61.20;100199.06;5022214;28;20523;-67
2022/08/12 06:13:17;;;;;;;8.60;4.78;;;;;;;19.93;61.34;100231.00;5031885;28;20046;-67
2022/08/12 06:16:08;;;;;;;15.38;6.18;;;;;;;20.02;61.31;100231.75;5030130;28;20049;-68
2022/08/12 06:18:39;;;;;;;16.08;6.72;;;;;;;19.78;61.56;100185.19;5029283;28;20049;-68
2022/08/12 06:21:12;;;;;;;10.65;5.63;;;;;;;20.27;61.65;100243.94;5031489;28;20049;-67
2022/08/12 06:23:39;;;;;;;13.05;6.03;;;;;;;20.39;61.54;100232.59;5031918;28;20085;-69
2022/08/12 06:26:11;;;;;;;13.85;6.60;;;;;;;20.50;61.19;100227.28;5030298;28;20115;-68
2022/08/12 06:28:39;;;;;;;10.35;5.93;;;;;;;20.79;61.14;100238.41;5028082;28;20061;-69
2022/08/12 06:31:06;;;;;;;9.88;6.05;;;;;;;20.67;60.78;100189.34;5030825;28;20540;-68
2022/08/12 06:33:54;;;;;;;10.23;5.30;;;;;;;21.09;60.72;100217.38;5029631;28;20041;-68
2022/08/12 06:36:41;;;;;;;13.77;5.77;;;;;;;21.11;60.37;100195.97;5029502;28;20056;-68
2022/08/12 06:39:10;;;;;;;10.23;5.00;;;;;;;21.52;59.92;100217.47;5029463;28;20144;-68
2022/08/12 06:44:47;;;;;;;12.15;5.90;;;;;;;22.10;58.98;100227.53;5024909;28;20052;-72
2022/08/12 06:47:15;;;;;;;13.38;7.28;;;;;;;22.11;58.77;100200.75;5022669;28;20061;-70
2022/08/12 06:49:43;;;;;;;13.25;7.20;;;;;;;22.59;58.42;100235.69;5023881;28;20080;-70
2022/08/12 06:52:10;;;;;;;16.33;6.32;;;;;;;22.86;57.98;100234.72;5022320;28;20136;-70
2022/08/12 06:54:37;;;;;;;16.38;6.47;;;;;;;22.90;57.38;100212.84;5018229;28;20061;-70
2022/08/12 06:57:04;;;;;;;11.65;6.97;;;;;;;23.29;56.99;100247.09;5027613;28;20394;-73
2022/08/12 06:59:51;;;;;;;12.23;5.93;;;;;;;23.53;57.03;100250.84;5031594;28;20064;-71
2022/08/12 07:02:19;;;;;;;11.30;5.00;;;;;;;23.63;56.31;100245.38;5031666;28;20060;-71
2022/08/12 07:04:46;;;;;;;11.32;5.15;;;;;;;23.92;55.56;100262.22;5030873;28;20084;-71
2022/08/12 07:07:13;;;;;;;15.05;5.43;;;;;;;24.23;55.64;100262.00;5045615;28;20459;-70
2022/08/12 07:09:42;;;;;;;11.77;6.68;;;;;;;24.31;55.06;100260.09;5028330;28;20475;-70
2022/08/12 07:12:30;;;;;;;11.63;5.85;;;;;;;24.53;54.74;100258.47;5026920;28;20456;-70
2022/08/12 07:15:00;;;;;;;12.32;4.88;;;;;;;24.83;54.47;100273.63;5025657;28;20489;-71
2022/08/12 07:17:34;;;;;;;9.90;5.65;;;;;;;25.00;53.74;100280.84;5027031;28;20505;-70
2022/08/12 07:20:11;;;;;;;13.88;6.20;;;;;;;25.07;53.76;100280.13;5027993;28;20050;-70
2022/08/12 07:22:56;;;;;;;10.18;5.07;;;;;;;25.15;53.68;100284.75;5028987;28;20037;-69
2022/08/12 07:25:35;;;;;;;10.00;5.55;;;;;;;24.60;53.54;100210.03;5023037;28;20073;-70
2022/08/12 07:28:17;;;;;;;13.43;5.78;;;;;;;24.96;53.49;100227.72;5025327;28;20147;-70
2022/08/12 07:30:47;;;;;;;14.95;6.32;;;;;;;25.59;52.62;100260.41;5023006;28;20637;-70
2022/08/12 07:33:17;;;;;;;14.40;7.45;;;;;;;26.06;51.85;100276.94;5023790;28;20049;-70
2022/08/12 07:35:46;;;;;;;;;;;;;;;26.34;53.00;100287.00;5019607;28;20057;-68
2022/08/12 07:38:23;;;;;;;;;;;;;;;26.69;52.83;100292.25;5015062;28;19921;-67
2022/08/12 07:41:30;;;;;;;17.42;8.20;;;;;;;27.17;51.51;100286.47;5021594;28;19921;-68
2022/08/12 07:43:59;;;;;;;12.80;6.03;;;;;;;27.40;50.11;100266.94;4991552;28;20084;-68
2022/08/12 07:46:42;;;;;;;18.00;9.50;;;;;;;27.76;49.50;100278.63;5026043;28;20049;-67
2022/08/12 07:49:14;;;;;;;23.65;12.05;;;;;;;28.04;49.15;100280.75;5021298;28;20158;-69
2022/08/12 07:51:42;;;;;;;11.13;6.55;;;;;;;28.21;48.53;100284.06;5022308;28;20077;-68
2022/08/12 07:54:11;;;;;;;15.07;7.67;;;;;;;28.17;48.43;100274.59;5023451;28;20077;-68
2022/08/12 07:56:41;;;;;;;8.05;5.20;;;;;;;28.10;47.73;100241.81;5026977;28;20140;-67
2022/08/12 07:59:08;;;;;;;;;;;;;;;28.51;49.32;100283.69;5020285;28;20136;-66
2022/08/12 08:01:39;;;;;;;12.18;5.18;;;;;;;28.40;47.25;100206.13;5024647;28;19921;-67
2022/08/12 08:06:53;;;;;;;12.95;5.40;;;;;;;29.37;45.81;100293.06;5027680;28;20095;-69
2022/08/12 08:09:21;;;;;;;10.43;4.18;;;;;;;29.42;45.29;100252.34;5020146;28;20085;-67
2022/08/12 08:14:45;;;;;;;11.82;5.47;;;;;;;30.07;43.80;100289.50;5026313;28;20128;-68
2022/08/12 08:17:16;;;;;;;8.55;4.75;;;;;;;30.22;43.38;100302.56;5022526;28;20486;-69
2022/08/12 08:19:43;;;;;;;9.73;3.72;;;;;;;30.24;42.87;100274.19;5024247;28;20041;-72
2022/08/12 08:22:30;;;;;;;10.95;3.88;;;;;;;30.73;42.37;100321.13;5020302;28;20100;-69
2022/08/12 08:25:10;;;;;;;10.05;4.13;;;;;;;30.86;41.98;100304.19;5020718;28;20042;-69
2022/08/12 08:28:01;;;;;;;;;;;;;;;30.98;43.51;100314.38;5017916;28;20053;-67
2022/08/12 08:30:30;;;;;;;6.85;3.63;;;;;;;31.02;42.02;100287.16;5020023;28;20465;-67
2022/08/12 08:32:58;;;;;;;6.80;3.70;;;;;;;31.28;41.51;100323.16;5027557;28;20049;-67
2022/08/12 08:35:26;;;;;;;7.40;3.70;;;;;;;31.24;40.81;100299.25;5025817;28;20794;-65
2022/08/12 08:38:15;;;;;;;6.57;3.55;;;;;;;31.32;40.98;100295.09;5015627;28;20358;-66
2022/08/12 08:44:05;;;;;;;14.00;4.10;;;;;;;31.72;40.09;100324.31;5021562;28;20046;-67
2022/08/12 08:46:36;;;;;;;4.60;2.53;;;;;;;31.65;39.82;100298.41;5027311;28;20552;-69
2022/08/12 08:49:04;;;;;;;10.30;2.90;;;;;;;31.95;39.52;100325.72;5022643;28;20069;-67
2022/08/12 08:51:32;;;;;;;5.93;2.92;;;;;;;32.15;39.06;100323.78;5029149;28;20053;-68
2022/08/12 08:53:58;;;;;;;8.13;2.55;;;;;;;32.18;38.81;100328.69;5019901;28;20076;-69
2022/08/12 08:56:29;;;;;;;6.05;3.50;;;;;;;32.24;38.61;100309.63;5019518;28;20087;-66
2022/08/12 08:58:56;;;;;;;4.90;2.63;;;;;;;32.35;37.85;100315.22;5024938;28;20192;-66
2022/08/12 09:01:25;;;;;;;7.85;2.67;;;;;;;32.02;38.49;100274.44;5021591;28;20065;-66
2022/08/12 09:04:04;;;;;;;5.80;2.92;;;;;;;31.97;37.97;100274.13;5021257;28;20064;-67
2022/08/12 09:06:55;;;;;;;6.77;2.37;;;;;;;32.32;37.96;100321.88;5026463;28;20425;-68
2022/08/12 09:09:23;;;;;;;6.60;3.53;;;;;;;32.49;37.60;100317.13;5026793;28;20303;-75
2022/08/12 09:15:06;;;;;;;4.78;2.80;;;;;;;32.68;36.96;100304.81;5021354;28;20049;-67
2022/08/12 09:17:55;;;;;;;5.70;3.88;;;;;;;32.48;37.41;100321.25;5024398;28;20057;-69
2022/08/12 09:20:26;;;;;;;6.38;3.00;;;;;;;32.54;37.32;100316.59;5019262;28;20053;-67
2022/08/12 09:22:56;;;;;;;11.48;3.13;;;;;;;32.71;37.00;100314.69;5024039;28;20133;-67
2022/08/12 09:25:30;;;;;;;5.78;3.15;;;;;;;32.70;36.90;100331.22;5019604;28;20053;-67
2022/08/12 09:28:00;;;;;;;10.93;3.13;;;;;;;32.26;37.27;100283.16;5025212;28;20108;-67
2022/08/12 09:30:31;;;;;;;4.72;2.30;;;;;;;32.69;36.68;100306.47;5018965;28;20049;-67
2022/08/12 09:33:07;;;;;;;10.40;4.15;;;;;;;32.71;36.73;100298.16;5031359;28;20069;-68
2022/08/12 09:35:45;;;;;;;7.93;2.65;;;;;;;32.87;36.40;100287.97;5029314;28;20046;-67
2022/08/12 09:38:32;;;;;;;8.65;2.50;;;;;;;33.33;36.29;100327.66;5030297;28;20258;-67
2022/08/12 09:41:01;;;;;;;9.40;3.30;;;;;;;33.34;35.81;100326.41;5027202;28;20064;-67
2022/08/12 09:46:54;;;;;;;6.95;2.85;;;;;;;32.96;35.55;100250.66;5026308;28;20056;-67
2022/08/12 09:49:25;;;;;;;6.05;2.97;;;;;;;33.60;35.52;100324.66;5028420;28;20107;-68
2022/08/12 09:51:53;;;;;;;7.80;2.47;;;;;;;33.77;35.23;100313.16;5027171;28;20063;-67
2022/08/12 09:54:24;;;;;;;4.15;2.47;;;;;;;33.94;34.50;100306.97;5022870;28;20057;-66
2022/08/12 09:57:17;;;;;;;5.30;2.35;;;;;;;34.19;34.56;100303.56;5030862;28;20144;-69
2022/08/12 10:00:08;;;;;;;6.63;3.28;;;;;;;34.26;34.12;100307.53;5021965;28;20522;-67
2022/08/12 10:02:58;;;;;;;;;;;;;;;34.15;35.90;100316.47;5026417;28;20152;-67
2022/08/12 10:05:26;;;;;;;7.68;2.58;;;;;;;34.32;34.36;100323.13;5025713;28;19984;-67
2022/08/12 10:08:15;;;;;;;6.50;2.70;;;;;;;34.49;34.29;100324.78;5023059;28;20053;-67
2022/08/12 10:13:42;;;;;;;10.40;2.78;;;;;;;34.41;33.80;100292.25;5027108;28;20065;-66
2022/08/12 10:16:20;;;;;;;4.50;2.80;;;;;;;34.30;34.18;100299.59;5024937;28;20480;-67
2022/08/12 10:19:00;;;;;;;4.25;2.33;;;;;;;34.43;33.87;100320.81;5024104;28;20099;-67
2022/08/12 10:21:46;;;;;;;7.60;2.53;;;;;;;34.54;33.51;100332.19;5028809;28;20549;-66
2022/08/12 10:24:22;;;;;;;6.88;2.83;;;;;;;34.40;33.57;100319.63;5027267;28;20050;-67
2022/08/12 10:29:43;;;;;;;4.93;2.42;;;;;;;34.52;33.27;100305.72;5025302;28;20060;-64
2022/08/12 10:32:30;;;;;;;9.38;2.80;;;;;;;34.65;33.12;100310.34;5027259;28;20714;-67
2022/08/12 10:35:14;;;;;;;7.35;3.13;;;;;;;34.92;33.01;100309.25;5023607;28;20050;-66
2022/08/12 10:37:44;;;;;;;;;;;;;;;34.70;34.40;100305.25;5034765;28;20426;-66
2022/08/12 10:40:31;;;;;;;11.40;3.20;;;;;;;34.84;33.06;100302.03;5022095;28;20321;-67
2022/08/12 10:45:47;;;;;;;8.80;3.65;;;;;;;34.81;33.42;100317.44;5022211;28;20073;-66
2022/08/12 10:48:19;;;;;;;10.93;2.60;;;;;;;34.66;33.02;100285.88;5029280;28;20048;-66
2022/08/12 10:51:05;;;;;;;6.40;2.60;;;;;;;34.29;33.56;100301.69;5024907;28;20506;-66
2022/08/12 10:53:55;;;;;;;6.95;2.97;;;;;;;33.86;33.90;100307.59;5026190;28;20449;-66
2022/08/12 10:56:26;;;;;;;5.50;2.92;;;;;;;33.93;34.02;100307.44;5022865;28;20417;-67
2022/08/12 10:59:00;;;;;;;6.13;2.50;;;;;;;33.78;34.14;100272.19;5026251;28;20057;-66
2022/08/12 11:01:27;;;;;;;6.80;2.85;;;;;;;34.09;33.49;100298.81;5023041;28;20053;-67
2022/08/12 11:04:15;;;;;;;7.00;2.40;;;;;;;33.98;34.20;100298.19;5025935;28;20050;-68
2022/08/12 11:06:59;;;;;;;4.70;2.05;;;;;;;34.32;33.41;100305.75;5025132;28;20521;-70
2022/08/12 11:09:47;;;;;;;5.95;2.28;;;;;;;34.70;33.19;100308.16;5022447;28;20066;-66
2022/08/12 11:12:30;;;;;;;4.82;2.50;;;;;;;34.58;33.29;100296.03;5024917;28;20204;-66
2022/08/12 11:15:22;;;;;;;6.43;2.03;;;;;;;34.17;33.12;100236.53;5020494;28;20502;-66
2022/08/12 11:18:09;;;;;;;7.30;3.35;;;;;;;34.66;32.99;100290.84;5022418;28;20053;-66
2022/08/12 11:20:43;;;;;;;5.18;2.90;;;;;;;34.94;32.46;100309.59;5020349;28;20196;-71
2022/08/12 11:23:11;;;;;;;5.80;2.20;;;;;;;34.83;32.22;100286.69;5020610;28;20139;-67
2022/08/12 11:25:58;;;;;;;4.68;2.15;;;;;;;35.22;32.26;100304.34;5021910;28;20041;-70
2022/08/12 11:28:32;;;;;;;6.93;2.63;;;;;;;35.30;32.11;100306.59;5027606;28;20057;-66
2022/08/12 11:31:06;;;;;;;4.63;2.15;;;;;;;35.54;31.50;100301.38;5027312;28;20409;-67
2022/08/12 11:33:41;;;;;;;5.45;2.30;;;;;;;35.55;31.39;100305.91;5027723;28;20597;-66
2022/08/12 11:36:28;;;;;;;2.58;1.60;;;;;;;35.54;31.70;100304.28;5025100;28;20511;-67
2022/08/12 11:38:56;;;;;;;5.82;2.65;;;;;;;35.73;32.01;100299.59;5029524;28;20053;-67
2022/08/12 11:41:23;;;;;;;11.00;2.53;;;;;;;35.47;31.54;100266.72;5017826;28;20085;-67
2022/08/12 11:44:01;;;;;;;4.35;2.20;;;;;;;34.60;31.34;100212.31;5025349;28;20042;-67
2022/08/12 11:46:49;;;;;;;3.47;2.13;;;;;;;34.79;32.09;100288.06;5026952;28;20405;-67
2022/08/12 11:49:20;;;;;;;5.72;2.75;;;;;;;34.18;32.28;100228.66;5022183;28;20569;-67
2022/08/12 11:52:02;;;;;;;5.80;1.95;;;;;;;34.76;32.44;100262.84;5028276;28;20517;-66
2022/08/12 11:54:30;;;;;;;6.68;2.67;;;;;;;35.42;31.47;100289.69;5029457;28;20065;-68
2022/08/12 11:56:59;;;;;;;9.18;2.22;;;;;;;35.55;31.00;100290.56;5022883;28;20502;-69
2022/08/12 11:59:29;;;;;;;9.05;2.67;;;;;;;35.55;31.06;100273.16;5029113;28;20048;-66
2022/08/12 12:02:15;;;;;;;4.93;2.40;;;;;;;35.93;30.65;100292.75;5026436;28;20049;-67
2022/08/12 12:04:47;;;;;;;6.78;2.45;;;;;;;36.21;29.85;100270.75;5025401;28;20053;-68
2022/08/12 12:07:21;;;;;;;4.25;2.33;;;;;;;36.59;29.27;100243.78;5027697;28;20060;-67
2022/08/12 12:10:10;;;;;;;7.80;2.30;;;;;;;37.16;28.22;100224.28;5026388;28;20049;-66
2022/08/12 12:12:36;;;;;;;;;;;;;;;37.40;29.45;100275.00;5027228;28;20057;-67
2022/08/12 12:15:07;;;;;;;5.22;2.30;;;;;;;38.06;27.90;100277.09;5025956;28;19927;-66
2022/08/12 12:17:37;;;;;;;3.92;1.80;;;;;;;38.42;27.13;100281.50;5022950;28;20056;-67
2022/08/12 12:20:09;;;;;;;5.43;2.22;;;;;;;38.94;26.30;100276.81;5026266;28;20115;-66
2022/08/12 12:22:39;;;;;;;3.38;1.85;;;;;;;39.70;25.34;100278.00;5023783;28;20057;-66
2022/08/12 12:25:07;;;;;;;6.57;2.55;;;;;;;40.45;24.38;100291.97;5021911;28;20127;-65
2022/08/12 12:27:44;;;;;;;3.88;2.08;;;;;;;40.86;23.51;100216.28;5024590;28;20057;-66
2022/08/12 12:30:33;;;;;;;10.07;3.17;;;;;;;41.89;23.06;100262.63;5024999;28;20042;-68
2022/08/12 12:33:00;;;;;;;5.22;2.10;;;;;;;42.39;22.55;100276.56;5024893;28;20585;-68
2022/08/12 12:35:27;;;;;;;2.65;1.60;;;;;;;42.69;21.43;100271.44;5025527;28;20081;-66
2022/08/12 12:38:15;;;;;;;5.93;2.35;;;;;;;43.23;21.30;100271.94;5028909;28;20053;-67
2022/08/12 12:40:45;;;;;;;3.17;1.65;;;;;;;43.39;21.42;100274.28;5022316;28;20058;-66
2022/08/12 12:43:16;;;;;;;4.57;1.88;;;;;;;43.43;21.04;100239.59;5026389;28;20094;-67
2022/08/12 12:46:04;;;;;;;7.07;2.10;;;;;;;43.96;20.13;100213.94;5021964;28;20063;-68
2022/08/12 12:48:31;;;;;;;3.87;2.20;;;;;;;44.53;19.99;100274.09;5025028;28;20682;-67
2022/08/12 12:51:16;;;;;;;6.68;2.78;;;;;;;44.99;19.82;100258.31;5024997;28;20510;-68
2022/08/12 12:54:03;;;;;;;6.18;2.10;;;;;;;44.72;19.62;100245.84;5017578;28;20053;-68
2022/08/12 12:56:39;;;;;;;3.70;2.28;;;;;;;44.45;19.78;100274.56;5020826;28;20081;-66
2022/08/12 12:59:06;;;;;;;5.60;2.53;;;;;;;44.06;19.89;100199.84;5024304;28;20053;-67
2022/08/12 13:01:53;;;;;;;4.37;2.70;;;;;;;44.87;19.56;100275.94;5022611;28;20049;-67
2022/08/12 13:04:21;;;;;;;10.25;2.10;;;;;;;45.27;18.97;100271.06;5027642;28;20441;-67
2022/08/12 13:06:50;;;;;;;5.75;2.75;;;;;;;45.18;18.66;100232.97;5020017;28;20426;-68
2022/08/12 13:09:18;;;;;;;8.15;2.20;;;;;;;44.45;19.06;100268.69;5019061;28;20122;-67
2022/08/12 13:11:48;;;;;;;3.88;2.10;;;;;;;41.21;21.77;100269.25;5023085;28;20041;-65
2022/08/12 13:14:20;;;;;;;3.60;1.80;;;;;;;38.82;24.05;100261.88;5020958;28;20057;-67
2022/08/12 13:16:59;;;;;;;9.90;2.67;;;;;;;37.00;25.63;100240.66;5020868;28;20136;-67
2022/08/12 13:19:35;;;;;;;4.53;1.67;;;;;;;35.49;27.20;100246.75;5021509;28;20456;-68
2022/08/12 13:22:16;;;;;;;5.38;2.55;;;;;;;34.28;28.58;100247.03;5020353;28;20053;-68
2022/08/12 13:24:46;;;;;;;7.75;3.50;;;;;;;33.37;29.64;100229.16;5021544;28;20045;-67
2022/08/12 13:27:28;;;;;;;7.90;2.35;;;;;;;32.74;30.21;100238.63;5023774;28;20057;-75
2022/08/12 13:30:04;;;;;;;6.05;2.55;;;;;;;31.95;31.43;100237.00;5026781;28;20453;-79
2022/08/12 13:32:49;;;;;;;5.63;2.42;;;;;;;31.48;32.47;100250.38;5018446;28;20061;-81
2022/08/12 13:35:34;;;;;;;8.43;2.67;;;;;;;30.82;32.89;100229.25;5020511;28;20135;-79
2022/08/12 13:38:40;;;;;;;3.53;2.55;;;;;;;30.41;33.31;100224.25;5022619;28;20400;-77
2022/08/12 13:44:08;;;;;;;8.68;2.78;;;;;;;30.03;34.82;100242.63;5020223;28;20091;-66
2022/08/12 13:46:37;;;;;;;5.63;2.72;;;;;;;29.75;35.16;100241.56;5022042;28;20053;-67
2022/08/12 13:49:05;;;;;;;7.25;3.35;;;;;;;29.59;35.34;100246.94;5022772;28;20176;-65
2022/08/12 13:51:34;;;;;;;8.18;3.05;;;;;;;29.41;35.75;100221.97;5028961;28;20049;-67
2022/08/12 13:54:10;;;;;;;7.05;3.65;;;;;;;29.32;36.27;100210.06;5014250;28;21608;-67
2022/08/12 13:56:39;;;;;;;7.75;3.13;;;;;;;29.23;36.73;100215.44;5020480;28;20502;-75